createdAt,value
2023-04-27T00:01:14.087Z,15.18
2023-04-27T00:03:41.487Z,14.93
2023-04-27T00:06:09.140Z,16.48
2023-04-27T00:08:35.744Z,12.43
2023-04-27T00:11:02.360Z,10.63
2023-04-27T00:13:28.989Z,14.20
2023-04-27T00:15:55.735Z,11.68
2023-04-27T00:18:22.394Z,12.30
2023-04-27T00:20:49.775Z,11.23
2023-04-27T00:23:16.415Z,16.77
2023-04-27T00:25:42.985Z,13.98
2023-04-27T00:28:09.433Z,13.13
2023-04-27T00:30:36.211Z,13.98
2023-04-27T00:33:02.759Z,13.55
2023-04-27T00:35:29.300Z,16.13
2023-04-27T00:37:55.769Z,12.23
2023-04-27T00:40:22.325Z,14.95
2023-04-27T00:42:48.826Z,14.60
2023-04-27T00:45:15.452Z,13.80
2023-04-27T00:47:43.128Z,15.07
2023-04-27T00:50:10.605Z,10.63
2023-04-27T00:52:37.503Z,11.50
2023-04-27T00:55:07.687Z,13.18
2023-04-27T00:57:38.911Z,9.77
2023-04-27T01:00:07.228Z,12.75
2023-04-27T01:02:35.102Z,15.98
2023-04-27T01:05:03.047Z,14.20
2023-04-27T01:07:29.717Z,15.88
2023-04-27T01:09:56.347Z,11.55
2023-04-27T01:12:22.891Z,12.02
2023-04-27T01:14:49.341Z,13.27
2023-04-27T01:17:15.868Z,11.25
2023-04-27T01:19:45.883Z,13.32
2023-04-27T01:22:12.692Z,12.00
2023-04-27T01:24:39.242Z,11.88
2023-04-27T01:27:05.885Z,13.52
2023-04-27T01:29:32.699Z,13.23
2023-04-27T01:31:59.592Z,12.75
2023-04-27T01:34:26.277Z,13.25
2023-04-27T01:36:52.753Z,13.50
2023-04-27T01:39:19.262Z,12.07
2023-04-27T01:41:45.888Z,12.90
2023-04-27T01:44:12.380Z,12.43
2023-04-27T01:46:38.975Z,13.88
2023-04-27T01:49:05.825Z,10.82
2023-04-27T01:51:32.988Z,13.25
2023-04-27T01:53:59.503Z,10.32
2023-04-27T01:56:26.112Z,13.43
2023-04-27T01:58:55.759Z,12.07
2023-04-27T02:01:22.790Z,16.27
2023-04-27T02:03:49.569Z,13.82
2023-04-27T02:06:16.320Z,11.90
2023-04-27T02:08:45.730Z,13.85
2023-04-27T02:11:12.204Z,15.05
2023-04-27T02:13:38.840Z,11.18
2023-04-27T02:16:05.578Z,16.65
2023-04-27T02:18:33.710Z,11.25
2023-04-27T02:21:00.766Z,18.20
2023-04-27T02:23:27.248Z,11.55
2023-04-27T02:25:53.688Z,13.93
2023-04-27T02:28:20.256Z,13.52
2023-04-27T02:30:47.266Z,13.98
2023-04-27T02:33:13.991Z,12.18
2023-04-27T02:35:40.599Z,12.82
2023-04-27T02:38:07.083Z,17.08
2023-04-27T02:40:33.709Z,14.85
2023-04-27T02:43:00.232Z,15.40
2023-04-27T02:45:26.690Z,16.08
2023-04-27T02:47:53.264Z,14.75
2023-04-27T02:50:19.965Z,14.50
2023-04-27T02:52:46.471Z,15.20
2023-04-27T02:55:14.390Z,15.00
2023-04-27T02:57:41.252Z,16.10
2023-04-27T03:00:10.507Z,16.23
2023-04-27T03:02:37.092Z,16.52
2023-04-27T03:05:04.477Z,18.17
2023-04-27T03:07:31.692Z,18.15
2023-04-27T03:09:58.198Z,20.48
2023-04-27T03:12:24.656Z,18.10
2023-04-27T03:14:51.105Z,15.85
2023-04-27T03:17:17.580Z,17.80
2023-04-27T03:19:44.033Z,17.17
2023-04-27T03:22:10.517Z,17.50
2023-04-27T03:24:36.987Z,26.05
2023-04-27T03:27:03.512Z,18.83
2023-04-27T03:29:32.985Z,18.42
2023-04-27T03:31:59.693Z,20.13
2023-04-27T03:34:26.197Z,20.88
2023-04-27T03:36:52.661Z,18.90
2023-04-27T03:39:19.148Z,15.95
2023-04-27T03:41:45.575Z,17.67
2023-04-27T03:44:12.062Z,23.33
2023-04-27T03:46:38.530Z,21.70
2023-04-27T03:49:05.157Z,22.25
2023-04-27T03:51:35.018Z,19.90
2023-04-27T03:54:01.637Z,28.40
2023-04-27T03:56:28.100Z,27.30
2023-04-27T03:58:54.679Z,17.13
2023-04-27T04:01:21.914Z,18.30
2023-04-27T04:03:48.818Z,22.50
2023-04-27T04:06:15.661Z,27.60
2023-04-27T04:08:42.171Z,21.02
2023-04-27T04:11:08.625Z,19.98
2023-04-27T04:13:36.082Z,22.00
2023-04-27T04:16:07.713Z,17.35
2023-04-27T04:18:35.299Z,26.50
2023-04-27T04:21:02.527Z,18.67
2023-04-27T04:23:29.055Z,17.50
2023-04-27T04:25:58.699Z,19.88
2023-04-27T04:28:28.553Z,19.90
2023-04-27T04:30:55.642Z,17.88
2023-04-27T04:33:22.219Z,18.88
2023-04-27T04:35:48.718Z,16.92
2023-04-27T04:38:15.178Z,19.02
2023-04-27T04:40:44.467Z,17.20
2023-04-27T04:43:13.430Z,16.55
2023-04-27T04:45:40.067Z,17.17
2023-04-27T04:48:06.679Z,21.00
2023-04-27T04:50:33.552Z,22.95
2023-04-27T04:53:00.039Z,15.57
2023-04-27T04:55:28.307Z,19.58
2023-04-27T04:57:54.953Z,17.88
2023-04-27T05:00:22.339Z,16.92
2023-04-27T05:02:48.950Z,16.40
2023-04-27T05:05:16.014Z,17.67
2023-04-27T05:07:45.828Z,19.75
2023-04-27T05:10:15.214Z,18.83
2023-04-27T05:12:41.684Z,15.38
2023-04-27T05:15:08.615Z,17.70
2023-04-27T05:17:35.139Z,18.65
2023-04-27T05:20:01.688Z,19.67
2023-04-27T05:22:28.243Z,13.93
2023-04-27T05:24:55.506Z,17.80
2023-04-27T05:27:22.139Z,15.30
2023-04-27T05:29:48.647Z,16.67
2023-04-27T05:32:15.307Z,18.52
2023-04-27T05:34:43.761Z,16.55
2023-04-27T05:37:10.379Z,16.77
2023-04-27T05:39:36.984Z,16.20
2023-04-27T05:42:03.533Z,17.45
2023-04-27T05:44:30.028Z,21.20
2023-04-27T05:46:56.468Z,17.45
2023-04-27T05:49:23.526Z,17.67
2023-04-27T05:51:50.103Z,16.13
2023-04-27T05:54:16.753Z,16.60
2023-04-27T05:56:43.409Z,15.07
2023-04-27T05:59:09.938Z,21.00
2023-04-27T06:01:36.841Z,15.57
2023-04-27T06:04:03.857Z,19.88
2023-04-27T06:06:35.354Z,22.13
2023-04-27T06:09:01.982Z,14.63
2023-04-27T06:11:28.646Z,24.48
2023-04-27T06:13:55.372Z,19.10
2023-04-27T06:16:22.223Z,18.98
2023-04-27T06:18:50.560Z,14.98
2023-04-27T06:21:17.244Z,15.27
2023-04-27T06:23:43.671Z,17.70
2023-04-27T06:26:10.327Z,19.38
2023-04-27T06:28:36.815Z,20.65
2023-04-27T06:31:03.584Z,15.32
2023-04-27T06:33:30.029Z,20.75
2023-04-27T06:35:56.494Z,21.38
2023-04-27T06:38:23.022Z,14.55
2023-04-27T06:40:55.172Z,17.27
2023-04-27T06:43:21.839Z,21.15
2023-04-27T06:45:48.443Z,19.10
2023-04-27T06:48:15.045Z,18.58
2023-04-27T06:50:41.612Z,16.40
2023-04-27T06:53:08.312Z,15.32
2023-04-27T06:55:35.064Z,17.48
2023-04-27T06:58:03.433Z,19.70
2023-04-27T07:00:33.560Z,17.98
2023-04-27T07:03:00.101Z,12.43
2023-04-27T07:05:27.284Z,13.27
2023-04-27T07:07:56.874Z,16.83
2023-04-27T07:10:23.330Z,14.27
2023-04-27T07:12:49.864Z,10.68
2023-04-27T07:15:16.619Z,11.32
2023-04-27T07:17:43.185Z,11.82
2023-04-27T07:20:09.759Z,11.45
2023-04-27T07:22:36.461Z,12.35
2023-04-27T07:25:03.915Z,10.95
2023-04-27T07:27:31.910Z,12.63
2023-04-27T07:29:58.847Z,9.23
2023-04-27T07:32:25.490Z,14.38
2023-04-27T07:34:54.550Z,11.80
2023-04-27T07:37:22.278Z,12.65
2023-04-27T07:39:50.534Z,10.70
2023-04-27T07:42:17.073Z,14.85
2023-04-27T07:44:43.598Z,12.55
2023-04-27T07:47:10.677Z,11.50
2023-04-27T07:49:37.519Z,13.60
2023-04-27T07:52:08.415Z,10.48
2023-04-27T07:54:35.253Z,14.10
2023-04-27T07:57:02.257Z,13.00
2023-04-27T07:59:30.191Z,13.18
2023-04-27T08:02:04.203Z,13.57
2023-04-27T08:04:33.941Z,12.77
2023-04-27T08:07:01.389Z,11.23
2023-04-27T08:09:27.990Z,13.95
2023-04-27T08:11:57.400Z,14.43
2023-04-27T08:14:23.923Z,10.93
2023-04-27T08:16:52.026Z,12.88
2023-04-27T08:19:18.614Z,9.85
2023-04-27T08:21:45.092Z,7.43
2023-04-27T08:24:11.637Z,6.45
2023-04-27T08:26:38.245Z,11.73
2023-04-27T08:29:15.346Z,10.18
2023-04-27T08:31:50.839Z,8.52
2023-04-27T08:34:18.207Z,10.60
2023-04-27T08:36:44.662Z,9.65
2023-04-27T08:39:11.441Z,7.00
2023-04-27T08:41:43.232Z,5.50
2023-04-27T08:44:09.849Z,9.00
2023-04-27T08:46:38.496Z,5.72
2023-04-27T08:49:06.189Z,9.35
2023-04-27T08:51:33.405Z,13.32
2023-04-27T08:54:00.206Z,7.90
2023-04-27T08:56:29.375Z,9.20
2023-04-27T08:58:57.169Z,10.98
2023-04-27T09:01:25.304Z,8.07
2023-04-27T09:04:00.317Z,11.38
2023-04-27T09:06:34.666Z,9.32
2023-04-27T09:09:02.523Z,8.50
2023-04-27T09:11:37.956Z,5.88
2023-04-27T09:14:19.434Z,11.90
2023-04-27T09:16:46.350Z,7.07
2023-04-27T09:19:25.699Z,8.98
2023-04-27T09:22:03.616Z,7.57
2023-04-27T09:24:30.146Z,6.72
2023-04-27T09:26:57.562Z,8.05
2023-04-27T09:29:38.688Z,8.35
2023-04-27T09:32:20.743Z,9.35
2023-04-27T09:37:14.532Z,9.40
2023-04-27T09:39:42.005Z,9.98
2023-04-27T09:42:09.211Z,7.68
2023-04-27T09:44:36.242Z,8.05
2023-04-27T09:47:02.734Z,9.73
2023-04-27T09:49:29.387Z,7.03
2023-04-27T09:51:58.701Z,9.65
2023-04-27T09:54:30.035Z,10.07
2023-04-27T09:57:15.946Z,8.02
2023-04-27T10:00:02.602Z,6.70
2023-04-27T10:02:50.080Z,7.05
2023-04-27T10:05:34.420Z,5.30
2023-04-27T10:08:02.521Z,4.22
2023-04-27T10:10:28.995Z,6.97
2023-04-27T10:13:01.390Z,4.93
2023-04-27T10:15:30.115Z,6.35
2023-04-27T10:18:04.606Z,7.40
2023-04-27T10:20:33.555Z,5.38
2023-04-27T10:23:00.869Z,5.75
2023-04-27T10:25:40.531Z,9.07
2023-04-27T10:28:09.991Z,7.03
2023-04-27T10:30:39.210Z,6.93
2023-04-27T10:33:10.932Z,7.40
2023-04-27T10:35:45.958Z,6.22
2023-04-27T10:38:17.468Z,6.53
2023-04-27T10:40:45.597Z,6.90
2023-04-27T10:43:14.254Z,6.60
2023-04-27T10:45:41.924Z,4.53
2023-04-27T10:48:08.916Z,7.50
2023-04-27T10:50:35.703Z,6.63
2023-04-27T10:53:07.752Z,5.93
2023-04-27T10:58:02.589Z,7.25
2023-04-27T11:00:38.692Z,7.75
2023-04-27T11:03:16.810Z,10.00
2023-04-27T11:05:45.284Z,5.93
2023-04-27T11:08:14.190Z,7.68
2023-04-27T11:10:44.503Z,6.47
2023-04-27T11:13:13.334Z,6.55
2023-04-27T11:15:58.088Z,4.63
2023-04-27T11:18:36.866Z,5.88
2023-04-27T11:21:15.322Z,4.55
2023-04-27T11:23:42.761Z,5.22
2023-04-27T11:26:19.800Z,6.95
2023-04-27T11:28:57.578Z,6.32
2023-04-27T11:31:27.264Z,6.80
2023-04-27T11:33:56.092Z,7.88
2023-04-27T11:36:23.800Z,6.65
2023-04-27T11:38:50.441Z,4.43
2023-04-27T11:41:17.635Z,5.50
2023-04-27T11:43:49.512Z,4.88
2023-04-27T11:46:21.321Z,6.47
2023-04-27T11:48:47.903Z,5.95
2023-04-27T11:51:14.456Z,4.78
2023-04-27T11:53:42.373Z,5.55
2023-04-27T11:56:11.025Z,5.53
2023-04-27T11:58:38.768Z,5.25
2023-04-27T12:01:06.806Z,6.60
2023-04-27T12:03:33.960Z,6.18
2023-04-27T12:06:15.839Z,6.07
2023-04-27T12:08:47.343Z,7.00
2023-04-27T12:11:13.822Z,4.28
2023-04-27T12:13:40.761Z,6.25
2023-04-27T12:16:07.466Z,7.10
2023-04-27T12:18:34.072Z,6.47
2023-04-27T12:21:03.110Z,8.38
2023-04-27T12:23:30.053Z,9.05
2023-04-27T12:25:56.536Z,5.35
2023-04-27T12:28:23.464Z,5.15
2023-04-27T12:30:50.121Z,7.68
2023-04-27T12:33:17.283Z,13.95
2023-04-27T12:35:43.825Z,7.20
2023-04-27T12:38:10.332Z,7.15
2023-04-27T12:40:39.579Z,8.82
2023-04-27T12:43:08.287Z,6.03
2023-04-27T12:45:34.742Z,5.90
2023-04-27T12:48:03.488Z,6.55
2023-04-27T12:50:32.689Z,7.78
2023-04-27T12:53:01.389Z,5.43
2023-04-27T12:57:58.266Z,8.07
2023-04-27T13:00:27.748Z,7.32
2023-04-27T13:02:56.601Z,6.72
2023-04-27T13:05:23.439Z,7.15
2023-04-27T13:07:49.928Z,4.93
2023-04-27T13:10:16.516Z,5.38
2023-04-27T13:12:43.058Z,7.40
2023-04-27T13:15:10.170Z,4.70
2023-04-27T13:17:41.701Z,6.05
2023-04-27T13:20:10.772Z,5.22
2023-04-27T13:22:37.282Z,7.45
2023-04-27T13:25:06.002Z,7.45
2023-04-27T13:27:32.479Z,6.57
2023-04-27T13:29:58.967Z,4.72
2023-04-27T13:32:28.256Z,8.88
2023-04-27T13:34:54.767Z,6.75
2023-04-27T13:37:21.730Z,4.72
2023-04-27T13:39:48.214Z,6.03
2023-04-27T13:42:14.664Z,10.07
2023-04-27T13:44:41.393Z,5.88
2023-04-27T13:47:08.099Z,6.35
2023-04-27T13:49:34.713Z,5.07
2023-04-27T13:52:01.378Z,6.82
2023-04-27T13:54:28.681Z,8.93
2023-04-27T13:56:55.198Z,7.28
2023-04-27T13:59:21.784Z,5.75
2023-04-27T14:01:48.366Z,5.35
2023-04-27T14:04:14.955Z,7.07
2023-04-27T14:06:41.604Z,7.00
2023-04-27T14:09:09.242Z,6.25
2023-04-27T14:11:48.602Z,9.02
2023-04-27T14:14:22.759Z,7.18
2023-04-27T14:16:51.405Z,6.43
2023-04-27T14:19:20.219Z,4.68
2023-04-27T14:21:47.736Z,7.70
2023-04-27T14:24:14.276Z,6.57
2023-04-27T14:26:43.973Z,5.60
2023-04-27T14:29:11.601Z,7.10
2023-04-27T14:31:39.343Z,8.35
2023-04-27T14:34:06.918Z,8.77
2023-04-27T14:36:33.962Z,6.07
2023-04-27T14:39:01.184Z,9.13
2023-04-27T14:41:28.457Z,7.57
2023-04-27T14:43:55.026Z,7.80
2023-04-27T14:46:22.072Z,7.70
2023-04-27T14:48:49.612Z,8.95
2023-04-27T14:51:16.757Z,6.13
2023-04-27T14:53:43.971Z,6.10
2023-04-27T14:56:11.122Z,12.15
2023-04-27T14:58:37.634Z,7.15
2023-04-27T15:01:04.208Z,7.70
2023-04-27T15:03:32.691Z,8.13
2023-04-27T15:06:00.198Z,7.10
2023-04-27T15:08:26.895Z,10.18
2023-04-27T15:10:59.665Z,7.22
2023-04-27T15:13:29.223Z,6.15
2023-04-27T15:15:57.378Z,7.97
2023-04-27T15:18:25.083Z,7.93
2023-04-27T15:20:55.906Z,10.98
2023-04-27T15:23:23.144Z,9.45
2023-04-27T15:25:51.844Z,7.32
2023-04-27T15:28:18.582Z,6.65
2023-04-27T15:30:45.711Z,8.35
2023-04-27T15:33:15.815Z,10.90
2023-04-27T15:35:42.713Z,8.63
2023-04-27T15:38:14.988Z,13.02
2023-04-27T15:41:01.710Z,7.10
2023-04-27T15:43:28.184Z,6.63
2023-04-27T15:45:54.929Z,5.20
2023-04-27T15:48:21.392Z,9.88
2023-04-27T15:50:47.847Z,8.15
2023-04-27T15:53:14.305Z,9.15
2023-04-27T15:55:40.832Z,7.50
2023-04-27T15:58:10.544Z,5.80
2023-04-27T16:00:37.142Z,8.65
2023-04-27T16:03:04.396Z,10.63
2023-04-27T16:05:31.181Z,6.60
2023-04-27T16:07:57.697Z,7.60
2023-04-27T16:10:24.152Z,7.53
2023-04-27T16:12:50.624Z,7.05
2023-04-27T16:15:17.319Z,10.35
2023-04-27T16:17:43.818Z,11.52
2023-04-27T16:20:11.783Z,6.45
2023-04-27T16:22:38.313Z,10.65
2023-04-27T16:25:10.181Z,10.95
2023-04-27T16:27:37.998Z,7.82
2023-04-27T16:30:05.641Z,8.50
2023-04-27T16:32:34.500Z,8.75
2023-04-27T16:35:01.945Z,11.07
2023-04-27T16:37:28.425Z,7.65
2023-04-27T16:39:54.946Z,7.20
2023-04-27T16:42:24.676Z,9.68
2023-04-27T16:44:51.459Z,7.18
2023-04-27T16:47:18.116Z,8.75
2023-04-27T16:49:44.759Z,10.55
2023-04-27T16:52:11.877Z,8.68
2023-04-27T16:54:38.357Z,6.60
2023-04-27T16:57:04.924Z,6.18
2023-04-27T16:59:31.467Z,11.68
2023-04-27T17:02:03.739Z,7.28
2023-04-27T17:04:39.997Z,9.55
2023-04-27T17:07:07.374Z,12.55
2023-04-27T17:09:36.568Z,6.55
2023-04-27T17:12:04.062Z,7.05
2023-04-27T17:14:30.681Z,9.20
2023-04-27T17:16:57.175Z,8.05
2023-04-27T17:19:24.193Z,10.02
2023-04-27T17:21:50.815Z,8.30
2023-04-27T17:24:17.299Z,5.55
2023-04-27T17:26:43.875Z,4.88
2023-04-27T17:29:10.549Z,9.50
2023-04-27T17:31:37.178Z,9.00
2023-04-27T17:34:06.629Z,6.60
2023-04-27T17:36:33.111Z,9.55
2023-04-27T17:39:01.220Z,16.25
2023-04-27T17:41:28.544Z,7.85
2023-04-27T17:43:55.106Z,9.73
2023-04-27T17:46:21.588Z,8.50
2023-04-27T17:48:48.149Z,7.80
2023-04-27T17:51:15.687Z,7.20
2023-04-27T17:53:42.713Z,9.98
2023-04-27T17:56:09.279Z,7.57
2023-04-27T17:58:36.260Z,8.30
2023-04-27T18:01:02.770Z,8.13
2023-04-27T18:03:29.621Z,7.40
2023-04-27T18:05:56.241Z,8.68
2023-04-27T18:08:22.789Z,7.18
2023-04-27T18:10:49.354Z,11.65
2023-04-27T18:13:18.867Z,8.30
2023-04-27T18:15:45.677Z,8.82
2023-04-27T18:18:16.706Z,10.82
2023-04-27T18:20:44.857Z,5.03
2023-04-27T18:23:11.374Z,9.30
2023-04-27T18:25:37.861Z,9.65
2023-04-27T18:28:05.833Z,10.50
2023-04-27T18:30:33.037Z,5.90
2023-04-27T18:32:59.521Z,6.53
2023-04-27T18:35:26.002Z,4.43
2023-04-27T18:37:52.503Z,8.00
2023-04-27T18:40:20.995Z,11.68
2023-04-27T18:42:48.118Z,7.50
2023-04-27T18:45:16.154Z,6.13
2023-04-27T18:47:42.671Z,9.02
2023-04-27T18:50:10.788Z,10.63
2023-04-27T18:52:37.212Z,8.27
2023-04-27T18:55:04.047Z,8.85
2023-04-27T18:57:30.643Z,5.65
2023-04-27T18:59:57.244Z,5.78
2023-04-27T19:02:25.753Z,6.40
2023-04-27T19:05:01.669Z,6.78
2023-04-27T19:07:37.249Z,6.32
2023-04-27T19:10:04.091Z,6.18
2023-04-27T19:12:31.330Z,8.60
2023-04-27T19:14:57.822Z,5.43
2023-04-27T19:17:24.513Z,7.85
2023-04-27T19:19:51.131Z,7.72
2023-04-27T19:22:17.642Z,7.88
2023-04-27T19:24:44.102Z,7.18
2023-04-27T19:27:11.812Z,8.60
2023-04-27T19:29:50.232Z,8.52
2023-04-27T19:32:16.930Z,7.45
2023-04-27T19:34:43.369Z,9.02
2023-04-27T19:37:09.870Z,9.65
2023-04-27T19:39:36.415Z,13.23
2023-04-27T19:42:02.938Z,15.40
2023-04-27T19:44:29.401Z,11.52
2023-04-27T19:46:55.916Z,12.48
2023-04-27T19:49:22.421Z,17.70
2023-04-27T19:51:48.896Z,12.07
2023-04-27T19:54:15.525Z,11.82
2023-04-27T19:56:42.431Z,10.15
2023-04-27T19:59:12.196Z,11.85
2023-04-27T20:01:38.794Z,11.20
2023-04-27T20:04:05.643Z,9.35
2023-04-27T20:06:33.279Z,10.88
2023-04-27T20:08:59.844Z,10.38
2023-04-27T20:11:26.816Z,12.57
2023-04-27T20:13:53.297Z,10.93
2023-04-27T20:16:19.905Z,6.45
2023-04-27T20:18:46.546Z,11.63
2023-04-27T20:21:13.096Z,9.07
2023-04-27T20:23:39.543Z,8.63
2023-04-27T20:26:09.063Z,9.70
2023-04-27T20:28:35.594Z,10.68
2023-04-27T20:31:05.207Z,9.50
2023-04-27T20:33:35.140Z,10.57
2023-04-27T20:36:14.294Z,8.73
2023-04-27T20:38:44.606Z,8.93
2023-04-27T20:41:14.689Z,7.30
2023-04-27T20:43:41.180Z,10.63
2023-04-27T20:46:08.035Z,7.50
2023-04-27T20:48:34.669Z,8.43
2023-04-27T20:51:01.344Z,8.23
2023-04-27T20:53:31.516Z,9.52
2023-04-27T20:55:57.987Z,8.48
2023-04-27T20:58:24.803Z,9.02
2023-04-27T21:00:52.584Z,6.40
2023-04-27T21:03:19.388Z,13.98
2023-04-27T21:05:46.573Z,8.82
2023-04-27T21:08:13.074Z,15.80
2023-04-27T21:10:39.594Z,11.95
2023-04-27T21:13:06.080Z,9.10
2023-04-27T21:15:36.201Z,12.30
2023-04-27T21:18:05.038Z,12.02
2023-04-27T21:20:33.255Z,9.10
2023-04-27T21:22:59.853Z,9.65
2023-04-27T21:25:28.294Z,11.88
2023-04-27T21:27:54.879Z,8.57
2023-04-27T21:30:21.439Z,8.70
2023-04-27T21:32:47.958Z,17.30
2023-04-27T21:35:17.919Z,9.85
2023-04-27T21:37:44.399Z,12.68
2023-04-27T21:40:11.288Z,11.18
2023-04-27T21:42:38.055Z,10.02
2023-04-27T21:45:04.878Z,12.48
2023-04-27T21:47:31.438Z,9.50
2023-04-27T21:49:57.928Z,11.63
2023-04-27T21:52:24.473Z,7.47
2023-04-27T21:54:50.983Z,14.85
2023-04-27T21:57:19.464Z,11.70
2023-04-27T21:59:46.568Z,16.08
2023-04-27T22:02:13.618Z,9.90
2023-04-27T22:04:40.381Z,10.85
2023-04-27T22:07:10.341Z,11.52
2023-04-27T22:09:36.945Z,10.80
2023-04-27T22:12:06.980Z,10.75
2023-04-27T22:14:36.136Z,11.57
2023-04-27T22:17:11.764Z,14.32
2023-04-27T22:19:38.412Z,9.45
2023-04-27T22:22:05.050Z,9.25
2023-04-27T22:24:31.565Z,9.80
2023-04-27T22:26:58.026Z,11.45
2023-04-27T22:29:24.592Z,11.65
2023-04-27T22:31:52.029Z,14.00
2023-04-27T22:34:18.774Z,12.15
2023-04-27T22:36:45.384Z,9.95
2023-04-27T22:39:12.162Z,10.48
2023-04-27T22:41:38.684Z,11.00
2023-04-27T22:44:05.234Z,13.25
2023-04-27T22:46:31.807Z,13.55
2023-04-27T22:49:01.474Z,9.15
2023-04-27T22:51:27.928Z,8.18
2023-04-27T22:53:54.639Z,9.43
2023-04-27T22:56:21.170Z,12.77
2023-04-27T22:58:47.701Z,9.48
2023-04-27T23:01:18.427Z,10.65
2023-04-27T23:03:45.108Z,10.15
2023-04-27T23:06:14.916Z,9.75
2023-04-27T23:08:49.152Z,11.00
2023-04-27T23:11:19.358Z,10.70
2023-04-27T23:13:50.227Z,11.75
2023-04-27T23:16:19.711Z,12.50
2023-04-27T23:18:46.823Z,10.63
2023-04-27T23:21:13.305Z,12.10
2023-04-27T23:23:42.435Z,10.38
2023-04-27T23:26:16.346Z,11.80
2023-04-27T23:28:46.055Z,11.75
2023-04-27T23:31:12.778Z,13.38
2023-04-27T23:33:39.286Z,13.20
2023-04-27T23:36:06.433Z,11.77
2023-04-27T23:38:33.144Z,10.13
2023-04-27T23:40:59.714Z,12.90
2023-04-27T23:43:27.491Z,10.20
2023-04-27T23:45:54.109Z,12.88
2023-04-27T23:48:20.630Z,11.35
2023-04-27T23:50:47.138Z,14.80
2023-04-27T23:53:13.599Z,12.77
2023-04-27T23:55:40.164Z,11.30
2023-04-27T23:58:09.398Z,10.50
